Terminal Aerodrome Forecast
Issued by NWS

Current Version | Previous Version | Text Only | Print | Product List | Glossary On
Versions: 1 2 3 4 5 6 7 8 9 10 11 12
000
FTAK31 PAFA 231120
TAFATA
TAF
PATA 231120Z 2312/2412 00000KT P6SM BKN050 OVC080
     FM232000 VRB05KT P6SM -SHRA SCT025 BKN050 OVC080=

USA.gov is the U.S. government's official web portal to all federal, state and local government web resources and services.